Time;durP1;ratioP1;P1;durP2;ratioP2;P2;SDS_P1;SDS_P2;PMS_P1;PMS_P2;Temp;Humidity;BMP_temperature;BMP_pressure;BME280_temperature;BME280_humidity;BME280_pressure;Samples;Min_cycle;Max_cycle;Signal;HPM_P1;HPM_P2
2023/09/19 00:01:00;;;;;;;6.30;5.43;;;;;;;23.42;43.78;95455.94;6248034;27;110166;-62
2023/09/19 00:04:09;;;;;;;6.90;6.30;;;;;;;23.45;43.44;95458.78;6248837;27;109281;-59
2023/09/19 00:07:13;;;;;;;7.07;6.38;;;;;;;23.47;43.67;95466.47;6251479;27;109173;-63
2023/09/19 00:10:16;;;;;;;8.80;7.00;;;;;;;23.51;43.55;95454.09;6246026;27;109570;-62
2023/09/19 00:13:21;;;;;;;8.52;7.72;;;;;;;23.52;43.31;95453.81;6223067;27;109202;-62
2023/09/19 00:16:24;;;;;;;7.32;6.72;;;;;;;23.53;43.77;95462.63;6235823;28;109031;-63
2023/09/19 00:19:28;;;;;;;7.10;6.40;;;;;;;23.49;43.27;95462.41;6233503;28;109917;-61
2023/09/19 00:22:32;;;;;;;6.25;5.65;;;;;;;23.45;43.39;95453.44;6234028;28;110172;-62
2023/09/19 00:25:36;;;;;;;7.22;6.53;;;;;;;23.49;43.68;95456.28;6226673;27;109020;-62
2023/09/19 00:28:41;;;;;;;7.00;6.30;;;;;;;23.48;43.58;95447.47;6233520;28;109175;-61
2023/09/19 00:31:45;;;;;;;6.70;6.10;;;;;;;23.45;43.91;95453.44;6237032;28;109180;-64
2023/09/19 00:34:48;;;;;;;7.43;6.82;;;;;;;23.45;43.81;95448.09;6231655;28;109078;-62
2023/09/19 00:37:51;;;;;;;8.00;7.30;;;;;;;23.48;43.80;95449.38;6228046;27;109174;-61
2023/09/19 00:40:56;;;;;;;8.57;7.78;;;;;;;23.46;43.81;95448.88;6236863;28;109164;-61
2023/09/19 00:44:04;;;;;;;8.20;7.40;;;;;;;23.45;43.56;95450.75;6236331;28;108945;-61
2023/09/19 00:47:09;;;;;;;8.32;7.60;;;;;;;23.43;44.00;95444.16;6221740;27;109225;-62
2023/09/19 00:50:14;;;;;;;9.00;8.10;;;;;;;23.42;44.04;95442.56;6236475;28;108994;-61
2023/09/19 00:53:21;;;;;;;9.13;8.25;;;;;;;23.40;44.05;95436.75;6236472;28;109026;-63
2023/09/19 00:56:24;;;;;;;11.07;10.18;;;;;;;23.42;43.62;95437.22;6236406;28;109052;-62
2023/09/19 00:59:30;;;;;;;17.13;15.73;;;;;;;23.37;43.80;95430.16;6221218;28;109146;-62
2023/09/19 01:02:33;;;;;;;16.05;14.57;;;;;;;23.39;44.00;95435.97;6233996;28;109064;-61
2023/09/19 01:05:36;;;;;;;11.97;10.97;;;;;;;23.38;43.86;95439.72;6219449;28;109281;-62
2023/09/19 01:08:39;;;;;;;14.10;12.90;;;;;;;23.39;44.21;95435.97;6228347;28;109174;-64
2023/09/19 01:11:47;;;;;;;9.95;8.90;;;;;;;23.34;43.73;95435.28;6227750;28;108945;-62
2023/09/19 01:14:57;;;;;;;11.10;10.20;;;;;;;23.33;43.97;95442.50;6235506;28;109067;-62
2023/09/19 01:18:10;;;;;;;11.10;10.10;;;;;;;23.33;44.30;95439.03;6233380;28;109954;-63
2023/09/19 01:21:21;;;;;;;10.23;9.33;;;;;;;23.29;44.19;95439.66;6222306;28;109991;-64
2023/09/19 01:24:56;;;;;;;10.90;9.80;;;;;;;23.33;44.02;95428.34;6233617;28;109711;-64
2023/09/19 01:28:30;;;;;;;9.25;8.40;;;;;;;23.34;43.74;95435.28;6230481;28;109083;-65
2023/09/19 01:31:39;;;;;;;10.45;9.55;;;;;;;23.33;44.11;95436.38;6226466;28;108812;-65
2023/09/19 01:34:48;;;;;;;9.23;8.43;;;;;;;23.32;44.29;95432.13;6229308;28;109003;-64
2023/09/19 01:37:53;;;;;;;9.40;8.60;;;;;;;23.33;44.20;95441.72;6223994;28;108991;-65
2023/09/19 01:41:04;;;;;;;9.90;9.10;;;;;;;23.34;44.20;95437.94;6234378;28;109169;-65
2023/09/19 01:44:15;;;;;;;11.30;10.40;;;;;;;23.34;44.36;95429.94;6224913;27;109528;-65
2023/09/19 01:47:33;;;;;;;11.30;10.30;;;;;;;23.37;44.14;95426.69;6224347;28;110564;-66
2023/09/19 01:50:52;;;;;;;10.50;9.50;;;;;;;23.36;44.01;95427.78;6238655;27;109014;-65
2023/09/19 01:54:02;;;;;;;13.40;12.20;;;;;;;23.37;43.99;95429.34;6235239;28;109194;-64
2023/09/19 01:57:15;;;;;;;10.90;9.90;;;;;;;23.35;44.05;95421.63;6224625;28;112344;-64
2023/09/19 02:00:21;;;;;;;12.40;11.20;;;;;;;23.35;44.38;95423.50;6233952;28;109117;-66
2023/09/19 02:03:28;;;;;;;11.75;10.75;;;;;;;23.32;44.34;95421.44;6234705;28;110737;-65
2023/09/19 02:06:33;;;;;;;10.40;9.50;;;;;;;23.33;44.51;95431.03;6224616;28;110810;-64
2023/09/19 02:09:38;;;;;;;11.90;10.80;;;;;;;23.37;44.54;95440.03;6232366;28;109140;-64
2023/09/19 02:12:42;;;;;;;13.70;12.50;;;;;;;23.38;44.37;95441.63;6234185;28;110408;-64
2023/09/19 02:15:45;;;;;;;12.02;10.93;;;;;;;23.38;43.92;95444.28;6233602;28;108896;-65
2023/09/19 02:18:51;;;;;;;13.30;12.13;;;;;;;23.36;44.17;95446.47;6220837;28;109248;-64
2023/09/19 02:21:54;;;;;;;9.73;8.82;;;;;;;23.27;44.29;95438.34;6234124;28;109032;-65
2023/09/19 02:25:00;;;;;;;9.82;8.93;;;;;;;23.28;44.21;95438.06;6234474;28;109251;-66
2023/09/19 02:28:05;;;;;;;9.80;9.00;;;;;;;23.26;44.23;95436.78;6232696;28;109189;-65
2023/09/19 02:31:08;;;;;;;12.70;11.60;;;;;;;23.27;44.32;95439.13;6223841;28;109204;-68
2023/09/19 02:34:16;;;;;;;11.73;10.63;;;;;;;23.29;44.19;95430.84;6233948;28;108960;-68
2023/09/19 02:37:20;;;;;;;10.10;9.20;;;;;;;23.25;44.62;95427.19;6231690;28;109000;-68
2023/09/19 02:40:25;;;;;;;9.73;8.93;;;;;;;23.24;44.65;95420.28;6224435;28;109847;-67
2023/09/19 02:43:28;;;;;;;7.40;6.80;;;;;;;23.17;44.11;95415.34;6234383;28;109200;-69
2023/09/19 02:46:32;;;;;;;7.63;6.93;;;;;;;23.17;44.31;95412.66;6234302;28;110071;-69
2023/09/19 02:49:36;;;;;;;8.98;8.18;;;;;;;23.15;44.33;95406.84;6224378;28;109759;-69
2023/09/19 02:52:43;;;;;;;10.60;9.60;;;;;;;23.20;44.72;95408.63;6223642;28;110661;-70
2023/09/19 02:55:48;;;;;;;9.40;8.50;;;;;;;23.18;44.30;95400.91;6233351;28;110250;-69
2023/09/19 02:58:52;;;;;;;10.45;9.55;;;;;;;23.15;44.70;95398.06;6230305;28;109143;-71
2023/09/19 03:01:55;;;;;;;13.60;12.43;;;;;;;23.18;44.52;95398.22;6233097;28;109281;-69
2023/09/19 03:05:00;;;;;;;14.38;12.98;;;;;;;23.17;44.21;95393.19;6222298;28;109247;-69
2023/09/19 03:08:04;;;;;;;13.53;12.33;;;;;;;23.14;44.82;95386.59;6230156;28;109029;-69
2023/09/19 03:11:11;;;;;;;19.65;17.85;;;;;;;23.16;44.41;95380.94;6231368;28;109128;-68
2023/09/19 03:14:15;;;;;;;17.83;16.40;;;;;;;23.16;44.46;95378.25;6225160;28;109072;-68
2023/09/19 03:17:19;;;;;;;19.35;17.75;;;;;;;23.18;44.28;95381.41;6227276;28;109270;-68
2023/09/19 03:20:27;;;;;;;21.63;19.83;;;;;;;23.16;44.36;95376.38;6229540;28;108942;-68
2023/09/19 03:23:30;;;;;;;17.55;16.15;;;;;;;23.17;44.44;95380.63;6217669;28;109079;-69
2023/09/19 03:26:34;;;;;;;15.43;14.00;;;;;;;23.21;44.54;95392.31;6222312;28;110038;-67
2023/09/19 03:29:38;;;;;;;13.45;12.35;;;;;;;23.20;44.49;95389.94;6227866;28;109044;-68
2023/09/19 03:32:46;;;;;;;17.33;15.80;;;;;;;23.18;44.98;95384.09;6232898;28;109353;-68
2023/09/19 03:35:54;;;;;;;13.30;12.20;;;;;;;23.14;44.77;95383.91;6232277;28;109182;-70
2023/09/19 03:38:58;;;;;;;15.35;14.05;;;;;;;23.30;44.71;95377.16;6219234;27;110509;-70
2023/09/19 03:42:02;;;;;;;28.67;26.37;;;;;;;23.47;44.51;95376.44;6233238;28;109138;-68
2023/09/19 03:45:11;;;;;;;16.77;15.38;;;;;;;23.60;44.49;95382.81;6232580;27;109094;-69
2023/09/19 03:48:14;;;;;;;17.83;16.33;;;;;;;23.64;45.09;95381.09;6228935;27;109110;-68
2023/09/19 03:51:18;;;;;;;13.20;11.90;;;;;;;23.58;44.93;95387.69;6231821;27;109314;-68
2023/09/19 03:54:21;;;;;;;16.90;15.45;;;;;;;23.45;44.16;95388.53;6240491;27;109074;-70
2023/09/19 03:57:25;;;;;;;16.95;15.55;;;;;;;23.49;45.16;95392.16;6250372;27;109034;-68
2023/09/19 04:00:29;;;;;;;16.58;15.18;;;;;;;23.55;44.94;95390.97;6225551;27;109247;-69
2023/09/19 04:03:45;;;;;;;18.90;17.10;;;;;;;23.57;45.13;95392.22;6235059;27;108973;-69
2023/09/19 04:06:50;;;;;;;18.50;16.70;;;;;;;23.59;44.80;95394.59;6234743;28;109978;-65
2023/09/19 04:09:53;;;;;;;12.20;11.10;;;;;;;23.58;44.85;95407.16;6234600;28;109923;-69
2023/09/19 04:12:57;;;;;;;12.20;11.10;;;;;;;23.61;44.42;95411.09;6216407;27;109300;-70
2023/09/19 04:16:00;;;;;;;11.48;10.27;;;;;;;23.58;44.78;95409.06;6228733;28;108981;-70
2023/09/19 04:19:03;;;;;;;11.40;10.40;;;;;;;23.55;44.68;95409.66;6232996;27;109266;-68
2023/09/19 04:22:09;;;;;;;13.37;12.07;;;;;;;23.54;44.25;95408.09;6222267;27;109509;-68
2023/09/19 04:25:12;;;;;;;10.25;9.45;;;;;;;23.49;44.28;95416.22;6230428;28;109068;-70
2023/09/19 04:28:15;;;;;;;10.48;9.43;;;;;;;23.50;45.06;95417.78;6234920;27;109187;-70
2023/09/19 04:31:20;;;;;;;10.90;9.80;;;;;;;23.52;45.20;95410.25;6237009;28;109051;-70
2023/09/19 04:34:24;;;;;;;9.57;8.65;;;;;;;23.53;44.25;95425.22;6225291;27;109183;-69
2023/09/19 04:37:28;;;;;;;8.98;8.00;;;;;;;23.53;45.32;95418.00;6233228;27;109214;-70
2023/09/19 04:40:32;;;;;;;9.15;8.25;;;;;;;23.37;45.12;95414.13;6236534;28;109146;-71
2023/09/19 04:43:35;;;;;;;9.27;8.38;;;;;;;23.25;45.22;95411.97;6235149;27;109050;-72
2023/09/19 04:46:39;;;;;;;8.20;7.30;;;;;;;23.20;45.52;95409.41;6225811;28;109911;-70
2023/09/19 04:49:42;;;;;;;9.40;8.00;;;;;;;23.23;45.55;95410.69;6234093;28;109543;-72
2023/09/19 04:52:50;;;;;;;10.10;7.75;;;;;;;23.21;44.63;95419.00;6244235;27;109188;-70
2023/09/19 04:55:55;;;;;;;8.52;7.72;;;;;;;23.18;44.77;95410.78;6238492;27;109012;-70
2023/09/19 04:58:58;;;;;;;7.80;7.00;;;;;;;23.21;44.50;95416.34;6224779;27;109243;-70
2023/09/19 05:02:02;;;;;;;7.20;6.60;;;;;;;23.34;44.67;95408.56;6236216;27;111230;-63
2023/09/19 05:05:06;;;;;;;8.85;8.05;;;;;;;23.39;44.36;95403.91;6236289;28;108965;-63
2023/09/19 05:08:11;;;;;;;9.73;8.70;;;;;;;23.43;44.36;95396.88;6222983;27;110443;-62
2023/09/19 05:11:14;;;;;;;9.65;8.68;;;;;;;23.38;44.50;95393.53;6229631;28;109095;-63
2023/09/19 05:14:17;;;;;;;9.00;8.20;;;;;;;23.41;44.55;95399.06;6232617;27;109077;-63
2023/09/19 05:17:20;;;;;;;8.30;7.60;;;;;;;23.47;44.46;95392.47;6231775;27;111097;-62
2023/09/19 05:20:29;;;;;;;9.40;8.60;;;;;;;23.50;44.04;95391.88;6224908;28;109147;-63
2023/09/19 05:23:34;;;;;;;10.18;8.80;;;;;;;23.46;44.43;95390.13;6234716;27;109705;-63
2023/09/19 05:26:37;;;;;;;10.68;9.38;;;;;;;23.45;44.44;95388.53;6232589;28;109412;-63
2023/09/19 05:29:41;;;;;;;9.30;8.40;;;;;;;23.53;44.38;95391.28;6231733;27;109213;-63
2023/09/19 05:32:45;;;;;;;10.40;9.40;;;;;;;23.53;44.32;95387.81;6214828;27;110327;-62
2023/09/19 05:35:49;;;;;;;10.00;9.10;;;;;;;23.52;44.63;95378.19;6235182;28;109056;-62
2023/09/19 05:38:53;;;;;;;9.23;8.32;;;;;;;23.34;45.02;95381.88;6233054;27;109243;-62
2023/09/19 05:41:57;;;;;;;8.95;8.05;;;;;;;23.32;45.00;95368.03;6229614;28;109090;-62
2023/09/19 05:45:00;;;;;;;9.65;8.32;;;;;;;23.48;44.77;95379.91;6228800;27;109372;-63
2023/09/19 05:48:09;;;;;;;9.60;7.85;;;;;;;23.52;44.96;95372.84;6232826;27;109291;-63
2023/09/19 05:51:12;;;;;;;8.60;6.80;;;;;;;23.56;44.66;95382.66;6225741;28;108861;-62
2023/09/19 05:54:19;;;;;;;9.02;8.13;;;;;;;23.47;44.99;95375.66;6240535;27;109062;-62
2023/09/19 05:57:24;;;;;;;7.88;6.68;;;;;;;23.37;45.29;95368.72;6251910;27;109420;-62
2023/09/19 06:00:29;;;;;;;7.95;6.30;;;;;;;23.37;45.10;95363.38;6260591;27;109219;-61
2023/09/19 06:03:32;;;;;;;8.45;6.55;;;;;;;23.45;45.27;95364.50;6260146;27;109320;-62
2023/09/19 06:06:39;;;;;;;8.00;7.20;;;;;;;23.58;44.85;95368.97;6248767;27;109603;-62
2023/09/19 06:09:44;;;;;;;8.20;6.88;;;;;;;23.70;44.52;95366.53;6232667;27;111130;-63
2023/09/19 06:12:48;;;;;;;7.65;6.93;;;;;;;23.70;44.61;95363.84;6235481;27;109067;-63
2023/09/19 06:15:51;;;;;;;7.43;5.93;;;;;;;23.62;45.08;95364.59;6230219;28;109192;-63
2023/09/19 06:18:55;;;;;;;6.53;5.80;;;;;;;23.62;44.66;95358.47;6239567;27;109678;-64
2023/09/19 06:21:59;;;;;;;7.20;5.53;;;;;;;23.67;44.89;95361.00;6260238;27;109150;-63
2023/09/19 06:25:04;;;;;;;6.83;6.00;;;;;;;23.72;44.81;95359.00;6259929;27;109071;-63
2023/09/19 06:28:12;;;;;;;5.60;4.60;;;;;;;23.87;44.95;95360.47;6240207;27;109281;-64
2023/09/19 06:31:15;;;;;;;6.43;5.60;;;;;;;23.92;45.38;95365.66;6260218;27;109225;-64
2023/09/19 06:34:18;;;;;;;5.70;5.10;;;;;;;23.98;44.62;95358.28;6259769;27;109134;-64
2023/09/19 06:37:22;;;;;;;6.03;5.43;;;;;;;24.02;45.02;95360.03;6250954;27;109093;-63
2023/09/19 06:40:27;;;;;;;5.82;5.32;;;;;;;24.01;45.28;95357.69;6247707;27;109051;-63
2023/09/19 06:43:33;;;;;;;6.70;6.00;;;;;;;23.87;44.95;95352.44;6259566;27;108941;-63
2023/09/19 06:46:39;;;;;;;8.63;6.07;;;;;;;23.80;45.42;95357.44;6260232;27;110037;-63
2023/09/19 06:49:43;;;;;;;8.10;5.87;;;;;;;23.81;45.11;95359.00;6246037;27;109473;-63
2023/09/19 06:52:50;;;;;;;7.30;5.93;;;;;;;23.67;45.05;95358.31;6253454;27;110044;-65
2023/09/19 06:55:54;;;;;;;6.80;6.20;;;;;;;23.71;45.20;95370.78;6259763;27;109182;-63
2023/09/19 06:58:58;;;;;;;8.13;7.10;;;;;;;23.48;45.23;95366.56;6238233;27;109059;-63
2023/09/19 07:02:01;;;;;;;7.20;6.50;;;;;;;23.54;45.27;95362.69;6222896;28;109063;-63
2023/09/19 07:05:07;;;;;;;7.40;6.27;;;;;;;23.61;44.85;95363.00;6234036;27;109599;-63
2023/09/19 07:08:12;;;;;;;7.40;6.10;;;;;;;23.65;44.82;95360.50;6231356;27;109171;-64
2023/09/19 07:11:17;;;;;;;11.20;10.10;;;;;;;23.61;45.43;95360.34;6234047;28;109308;-65
2023/09/19 07:14:20;;;;;;;9.52;8.73;;;;;;;23.72;44.93;95369.69;6223518;27;109236;-63
2023/09/19 07:17:24;;;;;;;9.73;8.75;;;;;;;23.76;45.06;95373.31;6231787;28;109106;-63
2023/09/19 07:20:27;;;;;;;10.32;5.90;;;;;;;23.70;45.36;95371.09;6234540;27;109733;-63
2023/09/19 07:23:34;;;;;;;6.95;5.50;;;;;;;23.69;45.09;95370.28;6243811;27;109049;-63
2023/09/19 07:26:39;;;;;;;6.10;5.50;;;;;;;23.76;44.90;95362.63;6252833;27;109216;-62
2023/09/19 07:29:43;;;;;;;8.10;7.30;;;;;;;24.00;44.90;95372.16;6236360;28;110348;-63
2023/09/19 07:32:46;;;;;;;7.53;6.83;;;;;;;24.15;44.75;95371.72;6238389;28;109275;-63
2023/09/19 07:35:49;;;;;;;8.65;7.72;;;;;;;24.20;44.64;95368.94;6229909;27;109127;-64
2023/09/19 07:38:52;;;;;;;9.30;8.40;;;;;;;24.23;44.88;95370.97;6234363;27;110031;-64
2023/09/19 07:41:57;;;;;;;12.35;11.10;;;;;;;24.23;44.92;95364.84;6238163;27;109278;-64
2023/09/19 07:45:00;;;;;;;10.90;9.88;;;;;;;24.24;45.01;95369.88;6238122;28;109164;-63
2023/09/19 07:48:06;;;;;;;10.40;9.50;;;;;;;24.31;44.73;95367.53;6224809;27;109075;-63
2023/09/19 07:51:10;;;;;;;10.60;9.60;;;;;;;24.27;44.63;95361.22;6242795;27;109921;-64
2023/09/19 07:54:14;;;;;;;10.10;9.20;;;;;;;24.23;44.36;95370.97;6263423;27;110106;-64
2023/09/19 07:57:19;;;;;;;11.50;10.50;;;;;;;24.18;44.44;95368.44;6246176;27;109172;-64
2023/09/19 08:00:23;;;;;;;10.98;9.98;;;;;;;24.14;43.76;95362.91;6227157;28;110014;-64
2023/09/19 08:03:26;;;;;;;11.70;10.70;;;;;;;23.99;44.87;95376.69;6260899;27;109234;-64
2023/09/19 08:06:30;;;;;;;10.43;9.48;;;;;;;23.90;44.71;95373.22;6262568;27;109063;-64
2023/09/19 08:09:34;;;;;;;9.60;8.70;;;;;;;23.93;44.57;95372.59;6230438;27;109516;-64
2023/09/19 08:12:45;;;;;;;8.75;7.95;;;;;;;23.96;45.06;95371.16;6247758;27;109169;-63
2023/09/19 08:15:48;;;;;;;10.13;6.70;;;;;;;24.09;44.88;95364.97;6262550;27;109147;-63
2023/09/19 08:18:53;;;;;;;7.75;7.05;;;;;;;24.23;44.69;95370.19;6241896;27;109310;-64
2023/09/19 08:21:58;;;;;;;7.72;7.03;;;;;;;24.26;44.46;95354.31;6226293;27;109023;-63
2023/09/19 08:25:01;;;;;;;7.35;6.28;;;;;;;24.26;44.48;95356.97;6237228;28;108952;-63
2023/09/19 08:28:09;;;;;;;7.00;6.40;;;;;;;24.32;44.32;95349.59;6234838;27;109125;-65
2023/09/19 08:31:12;;;;;;;9.00;8.20;;;;;;;24.35;44.42;95349.75;6240325;27;109377;-62
2023/09/19 08:34:15;;;;;;;7.60;6.90;;;;;;;24.33;44.43;95346.59;6251310;27;109255;-62
2023/09/19 08:37:19;;;;;;;5.90;5.30;;;;;;;24.27;44.21;95334.47;6253936;27;109940;-63
2023/09/19 08:40:22;;;;;;;6.03;5.50;;;;;;;24.23;43.96;95341.56;6236501;28;108976;-63
2023/09/19 08:43:28;;;;;;;6.20;5.70;;;;;;;24.27;44.07;95339.84;6231777;27;109112;-63
2023/09/19 08:46:32;;;;;;;6.50;6.00;;;;;;;24.31;44.07;95350.69;6230276;27;109103;-63
2023/09/19 08:49:43;;;;;;;6.10;5.50;;;;;;;24.33;43.75;95348.47;6234395;28;109164;-64
2023/09/19 08:52:51;;;;;;;5.90;5.40;;;;;;;24.35;43.93;95349.75;6252228;27;108949;-62
2023/09/19 08:55:56;;;;;;;6.15;5.55;;;;;;;24.37;44.00;95342.22;6251274;27;109139;-62
2023/09/19 08:59:03;;;;;;;7.70;7.00;;;;;;;24.37;43.90;95339.53;6228617;28;109045;-63
2023/09/19 09:02:12;;;;;;;7.47;6.78;;;;;;;24.39;44.15;95339.22;6236634;27;109189;-63
2023/09/19 09:05:22;;;;;;;8.20;7.60;;;;;;;24.40;44.14;95336.25;6236555;28;109547;-63
2023/09/19 09:08:26;;;;;;;8.55;7.85;;;;;;;24.43;44.10;95332.16;6228699;27;110519;-63
2023/09/19 09:11:30;;;;;;;8.20;7.50;;;;;;;24.41;44.09;95335.13;6239140;27;109510;-63
2023/09/19 09:14:34;;;;;;;7.22;6.63;;;;;;;24.40;43.80;95322.88;6261519;27;109087;-63
2023/09/19 09:17:37;;;;;;;8.20;7.50;;;;;;;24.41;43.95;95318.31;6246399;27;110180;-63
2023/09/19 09:20:41;;;;;;;8.98;8.07;;;;;;;24.37;44.11;95320.03;6230470;28;109190;-63
2023/09/19 09:23:45;;;;;;;9.73;8.83;;;;;;;24.32;44.24;95320.16;6257910;27;109127;-63
2023/09/19 09:26:49;;;;;;;8.90;8.10;;;;;;;24.29;44.53;95315.44;6259879;27;109804;-64
2023/09/19 09:29:55;;;;;;;9.10;8.20;;;;;;;24.34;44.35;95309.94;6222528;28;109508;-64
2023/09/19 09:33:10;;;;;;;8.43;7.63;;;;;;;24.37;44.25;95312.78;6251122;27;110209;-64
2023/09/19 09:36:15;;;;;;;8.82;7.90;;;;;;;24.35;44.53;95312.28;6261494;27;109151;-63
2023/09/19 09:39:32;;;;;;;7.10;6.40;;;;;;;24.29;44.69;95307.41;6234098;28;109281;-63
2023/09/19 09:42:39;;;;;;;6.18;5.65;;;;;;;24.25;44.54;95304.59;6224302;27;110037;-61
2023/09/19 09:45:48;;;;;;;15.40;8.52;;;;;;;24.23;45.17;95296.09;6234710;28;109156;-63
2023/09/19 09:49:15;;;;;;;6.97;6.28;;;;;;;24.15;45.01;95294.19;6234658;27;109827;-62
2023/09/19 09:52:23;;;;;;;8.98;6.13;;;;;;;24.11;45.13;95285.22;6233541;27;108781;-61
2023/09/19 09:55:27;;;;;;;6.20;5.60;;;;;;;24.06;44.86;95282.69;6261134;27;110328;-62
2023/09/19 09:58:31;;;;;;;6.00;5.07;;;;;;;23.95;44.95;95284.06;6244677;27;110034;-62
2023/09/19 10:01:49;;;;;;;6.07;5.10;;;;;;;24.14;44.72;95273.91;6234972;27;109139;-63
2023/09/19 10:04:59;;;;;;;7.72;6.93;;;;;;;24.25;45.12;95272.50;6224151;27;110201;-61
2023/09/19 10:08:15;;;;;;;8.70;6.00;;;;;;;24.25;45.05;95269.81;6234078;27;109208;-62
2023/09/19 10:11:19;;;;;;;8.38;5.95;;;;;;;24.30;44.99;95274.22;6235664;28;110036;-64
2023/09/19 10:14:31;;;;;;;7.20;6.10;;;;;;;24.42;44.92;95267.16;6253621;27;109194;-63
2023/09/19 10:17:56;;;;;;;7.32;5.97;;;;;;;24.49;44.60;95269.34;6247367;27;110453;-63
2023/09/19 10:21:04;;;;;;;7.43;5.70;;;;;;;24.46;44.67;95264.63;6235221;28;109292;-63
2023/09/19 10:24:09;;;;;;;5.70;5.10;;;;;;;24.44;44.90;95259.59;6235945;27;108863;-63
2023/09/19 10:27:12;;;;;;;6.65;5.05;;;;;;;24.44;45.09;95264.94;6223722;27;110130;-63
2023/09/19 10:30:17;;;;;;;6.20;5.60;;;;;;;24.44;44.83;95253.47;6234743;28;109899;-63
2023/09/19 10:33:25;;;;;;;6.40;5.57;;;;;;;24.39;44.94;95259.75;6234808;27;109252;-63
2023/09/19 10:36:34;;;;;;;5.82;5.32;;;;;;;24.29;45.62;95257.41;6235189;28;109156;-64
2023/09/19 10:39:40;;;;;;;8.25;5.80;;;;;;;24.25;46.59;95250.31;6222660;27;109896;-64
2023/09/19 10:42:46;;;;;;;6.70;5.80;;;;;;;24.22;47.09;95245.59;6235132;27;109181;-64
2023/09/19 10:45:52;;;;;;;6.10;5.50;;;;;;;24.34;45.99;95240.38;6235933;28;109082;-63
2023/09/19 10:49:00;;;;;;;7.53;5.57;;;;;;;24.41;46.26;95249.53;6226923;27;109198;-64
2023/09/19 10:52:08;;;;;;;6.10;5.50;;;;;;;24.40;46.40;95241.81;6234620;28;109316;-64
2023/09/19 10:55:18;;;;;;;7.05;5.60;;;;;;;24.42;46.11;95240.41;6234504;28;109215;-62
2023/09/19 10:58:29;;;;;;;6.20;5.60;;;;;;;24.48;46.72;95241.81;6233584;27;109522;-63
2023/09/19 11:01:44;;;;;;;6.50;5.73;;;;;;;24.49;46.94;95239.91;6223789;28;110926;-63
2023/09/19 11:04:49;;;;;;;6.40;5.80;;;;;;;24.48;47.04;95233.00;6259089;27;109345;-63
2023/09/19 11:07:59;;;;;;;6.10;5.30;;;;;;;24.50;46.92;95236.13;6249032;27;109018;-64
2023/09/19 11:11:03;;;;;;;6.20;5.60;;;;;;;24.48;47.24;95228.44;6230286;28;108822;-63
2023/09/19 11:14:16;;;;;;;6.90;6.20;;;;;;;24.48;47.20;95224.97;6246774;27;109145;-63
2023/09/19 11:17:34;;;;;;;6.80;6.20;;;;;;;24.47;47.43;95226.84;6253472;27;109179;-63
2023/09/19 11:20:43;;;;;;;6.80;6.20;;;;;;;24.49;47.37;95215.84;6233832;28;109032;-63
2023/09/19 11:24:22;;;;;;;6.40;5.90;;;;;;;24.54;46.85;95213.03;6223447;27;109447;-63
2023/09/19 11:27:27;;;;;;;6.40;5.80;;;;;;;24.47;46.02;95215.38;6220746;27;109356;-63
2023/09/19 11:30:32;;;;;;;6.57;5.97;;;;;;;24.42;46.13;95215.53;6234257;28;110128;-63
2023/09/19 11:33:38;;;;;;;6.57;5.20;;;;;;;24.39;45.91;95202.81;6233851;27;109229;-64
2023/09/19 11:36:45;;;;;;;6.50;5.90;;;;;;;24.43;46.46;95201.84;6224624;27;109014;-63
2023/09/19 11:40:09;;;;;;;6.07;5.57;;;;;;;24.47;46.85;95199.31;6236097;27;109032;-63
2023/09/19 11:43:34;;;;;;;6.28;5.78;;;;;;;24.45;47.03;95191.63;6233627;27;109135;-63
2023/09/19 11:46:53;;;;;;;6.40;5.80;;;;;;;24.46;46.46;95190.50;6221923;27;109007;-63
2023/09/19 11:49:59;;;;;;;6.57;5.93;;;;;;;24.47;47.60;95188.63;6232060;27;109315;-63
2023/09/19 11:53:05;;;;;;;6.30;5.70;;;;;;;24.46;47.38;95169.09;6240698;27;109145;-62
2023/09/19 11:56:10;;;;;;;6.53;5.82;;;;;;;24.40;48.00;95170.38;6258877;27;109408;-63
2023/09/19 11:59:22;;;;;;;8.25;6.50;;;;;;;24.29;48.90;95157.66;6231964;27;109892;-63
2023/09/19 12:02:39;;;;;;;6.65;6.05;;;;;;;24.28;48.61;95156.88;6235472;27;109397;-72
2023/09/19 12:05:43;;;;;;;6.88;6.28;;;;;;;24.35;48.57;95165.19;6258843;27;109869;-72
2023/09/19 12:08:48;;;;;;;6.50;6.00;;;;;;;24.41;48.29;95163.16;6234049;27;109121;-72
2023/09/19 12:11:52;;;;;;;6.60;6.10;;;;;;;24.46;48.57;95166.44;6237901;28;109017;-74
2023/09/19 12:14:58;;;;;;;6.40;5.90;;;;;;;24.45;47.96;95156.84;6250380;27;109333;-73
2023/09/19 12:18:03;;;;;;;6.75;6.15;;;;;;;24.45;47.97;95156.06;6228315;27;109014;-73
2023/09/19 12:21:12;;;;;;;6.60;6.00;;;;;;;24.40;49.26;95153.56;6227283;28;110493;-72
2023/09/19 12:24:19;;;;;;;6.90;6.30;;;;;;;24.44;48.66;95146.47;6237470;27;109070;-74
2023/09/19 12:27:22;;;;;;;6.43;5.93;;;;;;;24.42;48.94;95146.78;6217230;28;109423;-73
2023/09/19 12:30:33;;;;;;;7.00;6.40;;;;;;;24.38;49.39;95135.16;6241551;27;109430;-71
2023/09/19 12:33:36;;;;;;;7.55;6.75;;;;;;;24.37;49.69;95130.91;6241056;27;109106;-74
2023/09/19 12:36:40;;;;;;;6.97;6.38;;;;;;;24.44;48.76;95135.75;6262381;27;109089;-74
2023/09/19 12:39:49;;;;;;;6.82;6.30;;;;;;;24.45;48.07;95131.97;6236303;27;109217;-75
2023/09/19 12:42:55;;;;;;;6.20;5.70;;;;;;;24.50;48.37;95126.44;6227627;27;109698;-72
2023/09/19 12:45:58;;;;;;;6.50;5.90;;;;;;;24.44;48.46;95125.06;6233910;28;109065;-73
2023/09/19 12:49:18;;;;;;;6.63;6.03;;;;;;;24.39;48.11;95118.00;6228313;27;109066;-72
2023/09/19 12:52:21;;;;;;;7.13;6.03;;;;;;;24.41;46.82;95115.78;6218323;28;109229;-73
2023/09/19 12:55:27;;;;;;;6.70;6.10;;;;;;;24.44;47.22;95120.50;6225969;27;109271;-69
2023/09/19 12:58:32;;;;;;;6.88;6.28;;;;;;;24.40;47.77;95118.78;6236237;27;110112;-67
2023/09/19 13:01:40;;;;;;;6.82;6.22;;;;;;;24.43;48.10;95112.78;6236488;28;109281;-68
2023/09/19 13:04:53;;;;;;;7.80;7.10;;;;;;;24.49;46.94;95111.50;6231668;27;109146;-69
2023/09/19 13:07:57;;;;;;;7.50;6.80;;;;;;;24.57;46.41;95109.91;6232827;27;110204;-72
2023/09/19 13:11:13;;;;;;;6.70;6.03;;;;;;;24.61;46.38;95098.25;6237407;27;109533;-71
2023/09/19 13:14:20;;;;;;;7.40;6.60;;;;;;;24.62;46.15;95101.72;6249891;27;109325;-71
2023/09/19 13:17:23;;;;;;;6.43;5.82;;;;;;;24.60;45.57;95095.91;6244089;27;109455;-73
2023/09/19 13:20:28;;;;;;;8.48;6.07;;;;;;;24.42;47.15;95095.16;6236520;27;109754;-75
2023/09/19 13:23:31;;;;;;;6.95;6.30;;;;;;;24.36;47.28;95091.06;6236332;27;109037;-73
2023/09/19 13:26:36;;;;;;;8.00;6.43;;;;;;;24.31;47.88;95089.38;6216249;28;109535;-75
2023/09/19 13:29:39;;;;;;;7.30;6.60;;;;;;;24.21;47.63;95089.72;6228073;27;109543;-74
2023/09/19 13:32:43;;;;;;;7.40;6.80;;;;;;;24.36;47.38;95089.22;6234973;28;109063;-74
2023/09/19 13:35:48;;;;;;;8.00;6.70;;;;;;;24.37;47.70;95077.41;6236593;27;110238;-74
2023/09/19 13:38:53;;;;;;;7.60;6.90;;;;;;;24.29;48.55;95075.53;6230245;28;109197;-72
2023/09/19 13:41:57;;;;;;;6.95;6.25;;;;;;;24.23;48.27;95076.81;6230565;28;109071;-73
2023/09/19 13:45:00;;;;;;;7.53;6.82;;;;;;;24.30;47.66;95079.78;6253436;27;109528;-74
2023/09/19 13:48:04;;;;;;;7.40;6.80;;;;;;;24.29;48.42;95069.41;6249953;27;109182;-73
2023/09/19 13:51:07;;;;;;;7.28;6.60;;;;;;;24.22;47.60;95074.47;6225974;27;109051;-74
2023/09/19 13:54:12;;;;;;;7.18;6.57;;;;;;;24.24;48.29;95072.25;6245841;27;109175;-73
2023/09/19 13:57:17;;;;;;;7.00;6.30;;;;;;;24.36;47.77;95075.84;6255387;27;108992;-73
2023/09/19 14:00:20;;;;;;;7.55;6.95;;;;;;;24.48;47.29;95067.91;6235366;27;109255;-75
2023/09/19 14:03:23;;;;;;;7.53;6.80;;;;;;;24.63;46.48;95063.13;6227735;27;109328;-73
2023/09/19 14:06:27;;;;;;;7.23;6.63;;;;;;;24.55;46.17;95058.63;6261130;27;110303;-75
2023/09/19 14:09:31;;;;;;;7.10;6.50;;;;;;;24.44;46.84;95060.84;6236043;27;109566;-75
2023/09/19 14:12:35;;;;;;;6.68;6.18;;;;;;;24.41;47.07;95058.81;6235567;28;109041;-74
2023/09/19 14:15:38;;;;;;;7.80;7.10;;;;;;;24.35;47.58;95060.09;6224693;27;109567;-74
2023/09/19 14:18:41;;;;;;;7.10;6.40;;;;;;;24.45;47.04;95073.13;6236619;27;109241;-74
2023/09/19 14:21:45;;;;;;;6.60;6.10;;;;;;;24.49;46.79;95068.69;6235749;28;109273;-75